Time;durP1;ratioP1;P1;durP2;ratioP2;P2;SDS_P1;SDS_P2;PMS_P1;PMS_P2;Temp;Humidity;BMP_temperature;BMP_pressure;BME280_temperature;BME280_humidity;BME280_pressure;Samples;Min_cycle;Max_cycle;Signal;HPM_P1;HPM_P2
2024/01/30 00:00:31;;;;;;;18.85;12.40;;;;;;;;;;5048613;28;20040;-63
2024/01/30 00:02:56;;;;;;;21.02;13.82;;;;;;;;;;5050055;28;20037;-63
2024/01/30 00:05:21;;;;;;;16.23;12.88;;;;;;;;;;5048497;28;20167;-63
2024/01/30 00:07:47;;;;;;;18.58;13.18;;;;;;;;;;5049804;28;20016;-63
2024/01/30 00:10:12;;;;;;;19.75;13.65;;;;;;;;;;5049191;28;20041;-63
2024/01/30 00:12:37;;;;;;;21.50;15.17;;;;;;;;;;5050050;28;20025;-63
2024/01/30 00:15:04;;;;;;;22.03;13.63;;;;;;;;;;5048849;28;20531;-63
2024/01/30 00:17:29;;;;;;;21.80;15.13;;;;;;;;;;5050665;28;20021;-63
2024/01/30 00:19:54;;;;;;;17.33;12.77;;;;;;;;;;5048559;28;20037;-63
2024/01/30 00:22:20;;;;;;;18.03;13.70;;;;;;;;;;5050266;28;20096;-63
2024/01/30 00:24:45;;;;;;;15.97;12.30;;;;;;;;;;5048692;28;20531;-63
2024/01/30 00:27:10;;;;;;;16.67;12.43;;;;;;;;;;5050988;28;20421;-63
2024/01/30 00:29:35;;;;;;;19.67;15.63;;;;;;;;;;5052442;28;20558;-63
2024/01/30 00:32:01;;;;;;;18.20;14.52;;;;;;;;;;5053852;28;20671;-62
2024/01/30 00:34:26;;;;;;;15.93;11.73;;;;;;;;;;5052830;28;20044;-63
2024/01/30 00:36:51;;;;;;;21.03;13.93;;;;;;;;;;5053155;28;20863;-63
2024/01/30 00:39:16;;;;;;;21.33;11.60;;;;;;;;;;5052671;28;20056;-62
2024/01/30 00:41:41;;;;;;;16.00;14.30;;;;;;;;;;5053883;28;20427;-64
2024/01/30 00:44:07;;;;;;;19.00;12.63;;;;;;;;;;5052125;28;20455;-63
2024/01/30 00:46:32;;;;;;;17.23;13.45;;;;;;;;;;5054075;28;20458;-62
2024/01/30 00:48:57;;;;;;;21.13;12.93;;;;;;;;;;5052191;28;20439;-62
2024/01/30 00:51:22;;;;;;;20.23;12.77;;;;;;;;;;5053315;28;20772;-63
2024/01/30 00:53:47;;;;;;;16.43;12.77;;;;;;;;;;5052277;28;21021;-63
2024/01/30 00:56:13;;;;;;;19.85;14.90;;;;;;;;;;5053539;28;20052;-63
2024/01/30 00:58:39;;;;;;;14.60;13.07;;;;;;;;;;5051687;28;20037;-63
2024/01/30 01:01:04;;;;;;;15.60;11.57;;;;;;;;;;5053743;28;20482;-62
2024/01/30 01:03:29;;;;;;;19.83;12.57;;;;;;;;;;5052333;28;20487;-63
2024/01/30 01:05:54;;;;;;;15.73;12.47;;;;;;;;;;5052890;28;20021;-63
2024/01/30 01:08:20;;;;;;;15.10;10.95;;;;;;;;;;5052367;28;20478;-63
2024/01/30 01:10:45;;;;;;;16.75;12.25;;;;;;;;;;5053015;28;20013;-63
2024/01/30 01:13:10;;;;;;;21.90;12.83;;;;;;;;;;5052984;28;20151;-63
2024/01/30 01:15:35;;;;;;;13.70;11.70;;;;;;;;;;5051930;28;20471;-62
2024/01/30 01:18:01;;;;;;;19.35;12.35;;;;;;;;;;5053116;28;20412;-63
2024/01/30 01:20:26;;;;;;;16.20;11.93;;;;;;;;;;5051257;28;20037;-63
2024/01/30 01:22:52;;;;;;;25.37;15.47;;;;;;;;;;5052859;28;20408;-63
2024/01/30 01:25:17;;;;;;;20.13;13.82;;;;;;;;;;5051859;28;20863;-63
2024/01/30 01:27:44;;;;;;;20.67;14.20;;;;;;;;;;5052433;28;20101;-63
2024/01/30 01:30:10;;;;;;;19.63;14.80;;;;;;;;;;5051636;28;20474;-63
2024/01/30 01:32:36;;;;;;;18.20;14.93;;;;;;;;;;5052979;28;20411;-63
2024/01/30 01:35:01;;;;;;;16.70;14.20;;;;;;;;;;5050940;28;20079;-63
2024/01/30 01:37:27;;;;;;;18.23;14.33;;;;;;;;;;5052701;28;20036;-63
2024/01/30 01:39:52;;;;;;;17.77;13.90;;;;;;;;;;5050878;28;20439;-63
2024/01/30 01:42:17;;;;;;;14.23;12.73;;;;;;;;;;5052430;28;20104;-63
2024/01/30 01:44:42;;;;;;;18.33;13.57;;;;;;;;;;5051160;28;20519;-62
2024/01/30 01:47:08;;;;;;;21.13;16.88;;;;;;;;;;5053013;28;20427;-63
2024/01/30 01:49:33;;;;;;;25.90;13.48;;;;;;;;;;5050911;28;20041;-62
2024/01/30 01:51:58;;;;;;;23.03;15.63;;;;;;;;;;5052426;28;20017;-63
2024/01/30 01:54:25;;;;;;;31.80;19.52;;;;;;;;;;5051234;28;20570;-63
2024/01/30 01:56:51;;;;;;;21.40;14.43;;;;;;;;;;5052261;28;20375;-62
2024/01/30 01:59:17;;;;;;;21.38;14.93;;;;;;;;;;5050924;28;20029;-62
2024/01/30 02:01:43;;;;;;;19.80;14.88;;;;;;;;;;5051935;28;20025;-62
2024/01/30 02:04:08;;;;;;;19.92;15.05;;;;;;;;;;5050699;28;20123;-62
2024/01/30 02:06:34;;;;;;;24.45;15.75;;;;;;;;;;5052324;28;20020;-62
2024/01/30 02:08:59;;;;;;;18.58;14.45;;;;;;;;;;5050406;28;20037;-63
2024/01/30 02:11:24;;;;;;;19.48;13.65;;;;;;;;;;5051882;28;20027;-62
2024/01/30 02:13:50;;;;;;;25.80;15.02;;;;;;;;;;5050598;28;20533;-62
2024/01/30 02:16:17;;;;;;;21.20;13.75;;;;;;;;;;5052185;28;20044;-63
2024/01/30 02:18:45;;;;;;;20.52;14.52;;;;;;;;;;5050219;28;20064;-63
2024/01/30 02:21:10;;;;;;;19.02;13.32;;;;;;;;;;5052187;28;20040;-63
2024/01/30 02:23:36;;;;;;;19.50;15.63;;;;;;;;;;5050443;28;20522;-63
2024/01/30 02:26:01;;;;;;;30.42;14.40;;;;;;;;;;5051670;28;20606;-63
2024/01/30 02:28:27;;;;;;;22.90;16.43;;;;;;;;;;5050536;28;20032;-63
2024/01/30 02:30:52;;;;;;;24.17;14.65;;;;;;;;;;5051883;28;20446;-63
2024/01/30 02:33:17;;;;;;;24.42;14.70;;;;;;;;;;5049979;28;20036;-62
2024/01/30 02:35:43;;;;;;;20.77;14.85;;;;;;;;;;5051810;28;20465;-63
2024/01/30 02:38:08;;;;;;;29.40;16.53;;;;;;;;;;5051462;28;20048;-63
2024/01/30 02:40:33;;;;;;;30.63;14.00;;;;;;;;;;5050031;28;21036;-62
2024/01/30 02:42:59;;;;;;;19.42;15.18;;;;;;;;;;5051428;28;20021;-63
2024/01/30 02:45:24;;;;;;;19.17;15.07;;;;;;;;;;5050106;28;20057;-63
2024/01/30 02:47:49;;;;;;;16.87;13.90;;;;;;;;;;5051179;28;20570;-63
2024/01/30 02:50:15;;;;;;;27.77;15.67;;;;;;;;;;5049474;28;20028;-63
2024/01/30 02:52:40;;;;;;;18.42;14.32;;;;;;;;;;5051495;28;20431;-62
2024/01/30 02:55:05;;;;;;;26.90;18.48;;;;;;;;;;5050023;28;20443;-63
2024/01/30 02:57:30;;;;;;;20.05;14.93;;;;;;;;;;5051129;28;20431;-63
2024/01/30 02:59:56;;;;;;;22.00;14.90;;;;;;;;;;5049723;28;20036;-63
2024/01/30 03:02:21;;;;;;;16.80;13.67;;;;;;;;;;5049830;28;20039;-63
2024/01/30 03:04:46;;;;;;;21.37;14.60;;;;;;;;;;5049159;28;20443;-62
2024/01/30 03:07:12;;;;;;;24.02;15.75;;;;;;;;;;5050984;28;20021;-62
2024/01/30 03:09:37;;;;;;;27.35;16.92;;;;;;;;;;5049558;28;20588;-63
2024/01/30 03:12:03;;;;;;;19.60;13.93;;;;;;;;;;5050916;28;20043;-62
2024/01/30 03:14:30;;;;;;;23.45;16.27;;;;;;;;;;5049690;28;20503;-62
2024/01/30 03:16:55;;;;;;;32.47;18.05;;;;;;;;;;5051031;28;20423;-62
2024/01/30 03:19:20;;;;;;;23.10;16.47;;;;;;;;;;5049481;28;20101;-63
2024/01/30 03:21:45;;;;;;;16.97;14.40;;;;;;;;;;5050519;28;20021;-63
2024/01/30 03:24:11;;;;;;;19.83;14.23;;;;;;;;;;5049718;28;20448;-63
2024/01/30 03:26:36;;;;;;;20.80;15.43;;;;;;;;;;5050424;28;20110;-63
2024/01/30 03:29:01;;;;;;;24.27;15.23;;;;;;;;;;5049345;28;20456;-63
2024/01/30 03:31:26;;;;;;;19.85;17.63;;;;;;;;;;5050859;28;20491;-63
2024/01/30 03:33:51;;;;;;;22.30;14.23;;;;;;;;;;5048854;28;20403;-63
2024/01/30 03:36:17;;;;;;;24.43;15.97;;;;;;;;;;5050638;28;20427;-64
2024/01/30 03:38:42;;;;;;;25.73;16.35;;;;;;;;;;5049275;28;20064;-64
2024/01/30 03:41:08;;;;;;;17.60;14.40;;;;;;;;;;5050449;28;20491;-64
2024/01/30 03:43:33;;;;;;;26.38;18.70;;;;;;;;;;5049297;28;20048;-64
2024/01/30 03:45:59;;;;;;;23.43;14.00;;;;;;;;;;5050329;28;20028;-64
2024/01/30 03:48:25;;;;;;;22.80;16.55;;;;;;;;;;5048908;28;20079;-63
2024/01/30 03:50:50;;;;;;;19.75;15.90;;;;;;;;;;5050880;28;20056;-63
2024/01/30 03:53:15;;;;;;;20.83;14.83;;;;;;;;;;5049378;28;20350;-62
2024/01/30 03:55:41;;;;;;;25.27;15.43;;;;;;;;;;5050098;28;20473;-63
2024/01/30 03:58:06;;;;;;;19.40;15.67;;;;;;;;;;5050859;28;20412;-63
2024/01/30 04:00:31;;;;;;;23.80;15.57;;;;;;;;;;5049274;28;20423;-63
2024/01/30 04:02:56;;;;;;;24.30;16.07;;;;;;;;;;5051799;28;20046;-63
2024/01/30 04:05:21;;;;;;;21.27;15.73;;;;;;;;;;5053211;28;20044;-63
2024/01/30 04:07:46;;;;;;;24.23;18.27;;;;;;;;;;5054323;28;20443;-63
2024/01/30 04:10:12;;;;;;;20.73;16.57;;;;;;;;;;5052763;28;20528;-63
2024/01/30 04:12:37;;;;;;;21.88;18.13;;;;;;;;;;5054593;28;20423;-64
2024/01/30 04:15:03;;;;;;;19.13;16.33;;;;;;;;;;5052775;28;20026;-64
2024/01/30 04:17:28;;;;;;;22.42;16.27;;;;;;;;;;5054343;28;20489;-64
2024/01/30 04:19:54;;;;;;;23.95;15.82;;;;;;;;;;5052833;28;20446;-64
2024/01/30 04:22:19;;;;;;;18.95;15.65;;;;;;;;;;5054195;28;20021;-64
2024/01/30 04:24:44;;;;;;;19.67;16.30;;;;;;;;;;5052315;28;20427;-64
2024/01/30 04:27:09;;;;;;;19.43;14.70;;;;;;;;;;5054385;28;20032;-63
2024/01/30 04:29:35;;;;;;;25.77;19.07;;;;;;;;;;5052633;28;20112;-64
2024/01/30 04:32:00;;;;;;;25.87;17.13;;;;;;;;;;5053423;28;21033;-64
2024/01/30 04:34:25;;;;;;;25.23;17.17;;;;;;;;;;5052858;28;20513;-64
2024/01/30 04:36:50;;;;;;;24.73;15.50;;;;;;;;;;5053774;28;20432;-64
2024/01/30 04:39:15;;;;;;;28.30;18.57;;;;;;;;;;5052247;28;20465;-64
2024/01/30 04:41:41;;;;;;;22.05;16.48;;;;;;;;;;5053580;28;20499;-64
2024/01/30 04:44:06;;;;;;;24.10;16.80;;;;;;;;;;5052495;28;20029;-64
2024/01/30 04:46:33;;;;;;;21.30;15.80;;;;;;;;;;5053477;28;20115;-64
2024/01/30 04:48:59;;;;;;;20.30;15.55;;;;;;;;;;5052382;28;20040;-64
2024/01/30 04:51:24;;;;;;;25.13;17.08;;;;;;;;;;5053837;28;20091;-64
2024/01/30 04:53:49;;;;;;;22.37;14.93;;;;;;;;;;5051516;28;20504;-64
2024/01/30 04:56:14;;;;;;;18.03;14.93;;;;;;;;;;5053859;28;20017;-64
2024/01/30 04:58:39;;;;;;;19.60;16.37;;;;;;;;;;5052266;28;20392;-63
2024/01/30 05:01:05;;;;;;;25.93;16.80;;;;;;;;;;5053456;28;20427;-64
2024/01/30 05:03:33;;;;;;;18.70;15.13;;;;;;;;;;5051808;28;20524;-63
2024/01/30 05:05:58;;;;;;;24.65;15.65;;;;;;;;;;5053509;28;20451;-63
2024/01/30 05:08:23;;;;;;;25.17;17.73;;;;;;;;;;5051576;28;20464;-63
2024/01/30 05:10:49;;;;;;;22.70;16.87;;;;;;;;;;5052523;28;20497;-62
2024/01/30 05:13:14;;;;;;;19.50;14.55;;;;;;;;;;5052825;28;20025;-61
2024/01/30 05:15:39;;;;;;;20.93;15.27;;;;;;;;;;5051235;28;20423;-61
2024/01/30 05:18:04;;;;;;;26.23;18.47;;;;;;;;;;5053017;28;20020;-61
2024/01/30 05:20:30;;;;;;;20.57;15.90;;;;;;;;;;5051354;28;20456;-62
2024/01/30 05:22:55;;;;;;;24.85;16.90;;;;;;;;;;5052875;28;20669;-61
2024/01/30 05:25:20;;;;;;;18.80;15.65;;;;;;;;;;5051095;28;20044;-61
2024/01/30 05:27:45;;;;;;;21.83;15.90;;;;;;;;;;5054170;28;20099;-62
2024/01/30 05:30:11;;;;;;;25.23;17.03;;;;;;;;;;5050963;28;20041;-59
2024/01/30 05:32:36;;;;;;;21.85;16.35;;;;;;;;;;5052639;28;20829;-59
2024/01/30 05:35:01;;;;;;;20.52;14.63;;;;;;;;;;5051600;28;20033;-58
2024/01/30 05:37:27;;;;;;;23.73;16.67;;;;;;;;;;5053060;28;20025;-59
2024/01/30 05:39:52;;;;;;;18.90;15.07;;;;;;;;;;5050075;28;20140;-58
2024/01/30 05:42:17;;;;;;;20.47;15.23;;;;;;;;;;5052362;28;20029;-59
2024/01/30 05:44:42;;;;;;;15.63;13.67;;;;;;;;;;5051258;28;20064;-59
2024/01/30 05:47:07;;;;;;;25.13;15.95;;;;;;;;;;5052355;28;20462;-59
2024/01/30 05:49:33;;;;;;;20.27;14.27;;;;;;;;;;5051204;28;20044;-59
2024/01/30 05:51:58;;;;;;;20.27;15.07;;;;;;;;;;5052784;28;20966;-58
2024/01/30 05:54:23;;;;;;;20.80;15.03;;;;;;;;;;5050785;28;20443;-58
2024/01/30 05:56:48;;;;;;;16.70;14.53;;;;;;;;;;5052441;28;20426;-59
2024/01/30 05:59:13;;;;;;;18.23;15.38;;;;;;;;;;5046645;28;20554;-59
2024/01/30 06:01:44;;;;;;;17.50;14.83;;;;;;;;;;5050045;28;20021;-59
2024/01/30 06:04:10;;;;;;;17.73;16.00;;;;;;;;;;5046622;28;20416;-58
2024/01/30 06:06:35;;;;;;;24.87;15.67;;;;;;;;;;5051255;28;20020;-59
2024/01/30 06:09:00;;;;;;;17.60;15.27;;;;;;;;;;5050243;28;20439;-58
2024/01/30 06:11:25;;;;;;;18.67;16.47;;;;;;;;;;5069807;28;20063;-59
2024/01/30 06:13:50;;;;;;;16.47;14.43;;;;;;;;;;5070739;28;20442;-59
2024/01/30 06:16:16;;;;;;;24.90;13.87;;;;;;;;;;5050595;28;20036;-59
2024/01/30 06:18:41;;;;;;;26.60;15.95;;;;;;;;;;5050744;28;20685;-59
2024/01/30 06:21:06;;;;;;;18.23;13.57;;;;;;;;;;5049423;28;20041;-59
2024/01/30 06:23:31;;;;;;;22.43;14.87;;;;;;;;;;5050576;28;20501;-59
2024/01/30 06:25:56;;;;;;;16.00;14.03;;;;;;;;;;5047942;28;21076;-58
2024/01/30 06:28:22;;;;;;;19.87;15.60;;;;;;;;;;5049102;28;20516;-58
2024/01/30 06:30:47;;;;;;;18.95;12.55;;;;;;;;;;5050383;28;20020;-59
2024/01/30 06:33:13;;;;;;;12.90;11.45;;;;;;;;;;5050027;28;20036;-58
2024/01/30 06:35:40;;;;;;;18.25;13.25;;;;;;;;;;5051296;28;20092;-59
2024/01/30 06:38:05;;;;;;;19.17;13.52;;;;;;;;;;5050811;28;20020;-59
2024/01/30 06:40:30;;;;;;;18.00;15.88;;;;;;;;;;5049881;28;20029;-59
2024/01/30 06:42:55;;;;;;;22.10;13.48;;;;;;;;;;5050336;28;20451;-59
2024/01/30 06:45:21;;;;;;;20.15;13.10;;;;;;;;;;5049336;28;20072;-58
2024/01/30 06:47:46;;;;;;;18.67;11.43;;;;;;;;;;5051045;28;20025;-59
2024/01/30 06:50:11;;;;;;;15.47;13.83;;;;;;;;;;5050034;28;20496;-58
2024/01/30 06:52:36;;;;;;;25.67;15.23;;;;;;;;;;5050911;28;20104;-59
2024/01/30 06:55:02;;;;;;;17.77;14.23;;;;;;;;;;5049897;28;20467;-58
2024/01/30 06:57:28;;;;;;;18.42;12.65;;;;;;;;;;5049815;28;20033;-58
2024/01/30 06:59:56;;;;;;;23.42;13.52;;;;;;;;;;5048117;28;20403;-59
2024/01/30 07:02:21;;;;;;;18.42;14.25;;;;;;;;;;5051136;28;20363;-59
2024/01/30 07:04:46;;;;;;;16.50;13.25;;;;;;;;;;5049507;28;20112;-59
2024/01/30 07:07:12;;;;;;;18.67;12.50;;;;;;;;;;5050822;28;20036;-58
2024/01/30 07:09:38;;;;;;;14.55;13.05;;;;;;;;;;5049431;28;20463;-59
2024/01/30 07:12:03;;;;;;;19.77;11.75;;;;;;;;;;5051448;28;20032;-58
2024/01/30 07:14:29;;;;;;;13.05;11.20;;;;;;;;;;5049345;28;20431;-59
2024/01/30 07:16:54;;;;;;;14.73;12.53;;;;;;;;;;5045597;28;20026;-59
2024/01/30 07:19:19;;;;;;;17.37;13.27;;;;;;;;;;5029256;28;20033;-59
2024/01/30 07:21:44;;;;;;;12.93;11.07;;;;;;;;;;5029588;28;20024;-59
2024/01/30 07:24:09;;;;;;;16.45;11.38;;;;;;;;;;5027649;28;20042;-58
2024/01/30 07:26:35;;;;;;;14.93;13.23;;;;;;;;;;5031227;28;20029;-58
2024/01/30 07:29:00;;;;;;;18.77;13.35;;;;;;;;;;5029102;28;20056;-58
2024/01/30 07:31:26;;;;;;;15.82;12.00;;;;;;;;;;5030768;28;20100;-59
2024/01/30 07:33:51;;;;;;;13.47;11.27;;;;;;;;;;5029398;28;20747;-59
2024/01/30 07:36:16;;;;;;;14.60;11.50;;;;;;;;;;5030595;28;20110;-58
2024/01/30 07:38:41;;;;;;;18.35;13.32;;;;;;;;;;5028722;28;20582;-58
2024/01/30 07:41:06;;;;;;;14.47;10.87;;;;;;;;;;5031016;28;20033;-58
2024/01/30 07:43:35;;;;;;;19.35;15.00;;;;;;;;;;5029585;28;20456;-58
2024/01/30 07:46:02;;;;;;;17.60;12.95;;;;;;;;;;5030554;28;20097;-58
2024/01/30 07:48:27;;;;;;;15.63;12.35;;;;;;;;;;5029320;28;20037;-59
2024/01/30 07:50:53;;;;;;;19.42;11.98;;;;;;;;;;5030239;28;20018;-59
2024/01/30 07:53:18;;;;;;;23.45;13.20;;;;;;;;;;5028537;28;20029;-58
2024/01/30 07:55:46;;;;;;;21.30;12.55;;;;;;;;;;5029907;28;20026;-59
2024/01/30 07:58:11;;;;;;;19.13;11.67;;;;;;;;;;5030035;28;20068;-58
2024/01/30 08:00:37;;;;;;;12.43;11.20;;;;;;;;;;5027722;28;20784;-59
2024/01/30 08:03:02;;;;;;;12.20;10.60;;;;;;;;;;5030176;28;20018;-59
2024/01/30 08:05:27;;;;;;;18.27;13.48;;;;;;;;;;5029154;28;20034;-59
2024/01/30 08:07:52;;;;;;;17.00;10.83;;;;;;;;;;5045931;28;20124;-59
2024/01/30 08:10:20;;;;;;;13.23;10.80;;;;;;;;;;5048406;28;20814;-59
2024/01/30 08:12:46;;;;;;;13.75;11.35;;;;;;;;;;5049717;28;20480;-59
2024/01/30 08:15:12;;;;;;;16.38;11.75;;;;;;;;;;5048620;28;20037;-59
2024/01/30 08:17:37;;;;;;;18.58;12.60;;;;;;;;;;5050603;28;20057;-58
2024/01/30 08:20:04;;;;;;;21.00;13.10;;;;;;;;;;5048813;28;20567;-58
2024/01/30 08:22:29;;;;;;;22.20;12.20;;;;;;;;;;5050095;28;20074;-58
2024/01/30 08:24:54;;;;;;;17.27;10.97;;;;;;;;;;5048804;28;20037;-58
2024/01/30 08:27:19;;;;;;;18.47;11.00;;;;;;;;;;5050370;28;20817;-60
2024/01/30 08:29:45;;;;;;;15.43;13.23;;;;;;;;;;5048315;28;20037;-60
2024/01/30 08:32:10;;;;;;;16.43;13.13;;;;;;;;;;5050511;28;20427;-58
2024/01/30 08:34:35;;;;;;;15.73;10.50;;;;;;;;;;5048884;28;20063;-58
2024/01/30 08:37:00;;;;;;;19.75;14.10;;;;;;;;;;5049794;28;20040;-58
2024/01/30 08:39:26;;;;;;;26.43;13.97;;;;;;;;;;5048998;28;20627;-59
2024/01/30 08:41:51;;;;;;;16.92;11.85;;;;;;;;;;5049842;28;20466;-59
2024/01/30 08:44:17;;;;;;;15.32;11.15;;;;;;;;;;5048652;28;20488;-59
2024/01/30 08:46:42;;;;;;;17.10;11.43;;;;;;;;;;5050261;28;20108;-58
2024/01/30 08:49:08;;;;;;;12.65;11.02;;;;;;;;;;5050531;28;20119;-58
2024/01/30 08:51:33;;;;;;;12.73;9.87;;;;;;;;;;5053529;28;20021;-58
2024/01/30 08:53:58;;;;;;;13.35;11.13;;;;;;;;;;5052103;28;20460;-58
2024/01/30 08:56:24;;;;;;;13.48;11.48;;;;;;;;;;5053584;28;20021;-58
2024/01/30 08:58:49;;;;;;;12.77;9.57;;;;;;;;;;5051746;28;20062;-58
2024/01/30 09:01:14;;;;;;;13.47;9.37;;;;;;;;;;5053653;28;20428;-59
2024/01/30 09:03:41;;;;;;;16.92;12.02;;;;;;;;;;5051693;28;20037;-58
2024/01/30 09:06:09;;;;;;;13.18;10.07;;;;;;;;;;5053113;28;20534;-59
2024/01/30 09:08:34;;;;;;;13.65;11.98;;;;;;;;;;5052035;28;20072;-58
2024/01/30 09:11:00;;;;;;;17.47;10.20;;;;;;;;;;5053339;28;20055;-59
2024/01/30 09:13:25;;;;;;;13.47;10.97;;;;;;;;;;5051654;28;20470;-58
2024/01/30 09:15:50;;;;;;;12.93;9.60;;;;;;;;;;5053015;28;20440;-58
2024/01/30 09:18:15;;;;;;;24.93;11.00;;;;;;;;;;5051782;28;20851;-58
2024/01/30 09:20:40;;;;;;;13.82;10.05;;;;;;;;;;5053023;28;20481;-59
2024/01/30 09:23:06;;;;;;;14.45;9.43;;;;;;;;;;5053341;28;20052;-59
2024/01/30 09:25:31;;;;;;;18.10;12.80;;;;;;;;;;5051770;28;20033;-59
2024/01/30 09:27:56;;;;;;;13.63;10.13;;;;;;;;;;5052497;28;20408;-59
2024/01/30 09:30:21;;;;;;;11.97;10.77;;;;;;;;;;5051808;28;20049;-59
2024/01/30 09:32:47;;;;;;;17.73;10.70;;;;;;;;;;5052745;28;20476;-59
2024/01/30 09:35:12;;;;;;;23.97;12.33;;;;;;;;;;5051357;28;20032;-59
2024/01/30 09:37:37;;;;;;;19.23;11.83;;;;;;;;;;5052643;28;20029;-59
2024/01/30 09:40:03;;;;;;;12.68;9.73;;;;;;;;;;5051579;28;20041;-59
2024/01/30 09:42:35;;;;;;;15.50;9.82;;;;;;;;;;5052391;28;20091;-59
2024/01/30 09:45:01;;;;;;;10.98;9.52;;;;;;;;;;5051062;28;20528;-59
2024/01/30 09:47:26;;;;;;;10.70;9.60;;;;;;;;;;5052726;28;20055;-59
2024/01/30 09:49:52;;;;;;;13.02;10.38;;;;;;;;;;5050659;28;20057;-59
2024/01/30 09:52:18;;;;;;;14.73;9.77;;;;;;;;;;5052772;28;20464;-59
2024/01/30 09:54:44;;;;;;;17.15;10.25;;;;;;;;;;5050902;28;20056;-58
2024/01/30 09:57:11;;;;;;;14.35;9.93;;;;;;;;;;5052586;28;20024;-59
2024/01/30 09:59:36;;;;;;;12.20;10.90;;;;;;;;;;5050952;28;20033;-59
2024/01/30 10:02:03;;;;;;;12.55;10.45;;;;;;;;;;5052123;28;20021;-59
2024/01/30 10:04:28;;;;;;;15.90;9.57;;;;;;;;;;5051308;28;20082;-59
2024/01/30 10:06:53;;;;;;;15.20;9.97;;;;;;;;;;5051834;28;20020;-59
2024/01/30 10:09:19;;;;;;;11.17;9.80;;;;;;;;;;5050951;28;20036;-59
2024/01/30 10:11:44;;;;;;;11.13;9.40;;;;;;;;;;5051965;28;20435;-59
2024/01/30 10:14:09;;;;;;;14.63;11.13;;;;;;;;;;5050531;28;20013;-59
2024/01/30 10:16:34;;;;;;;12.37;9.43;;;;;;;;;;5052088;28;20017;-59
2024/01/30 10:19:00;;;;;;;10.52;9.00;;;;;;;;;;5051995;28;21085;-58
2024/01/30 10:21:25;;;;;;;13.07;11.17;;;;;;;;;;5050413;28;20033;-58
2024/01/30 10:23:50;;;;;;;14.53;10.47;;;;;;;;;;5051840;28;20422;-58
2024/01/30 10:26:18;;;;;;;14.70;10.20;;;;;;;;;;5050654;28;20518;-59
2024/01/30 10:28:43;;;;;;;13.70;10.88;;;;;;;;;;5049856;28;20033;-59
2024/01/30 10:31:08;;;;;;;18.60;10.43;;;;;;;;;;5052210;28;20027;-59
2024/01/30 10:33:34;;;;;;;10.98;9.15;;;;;;;;;;5050851;28;20452;-59
2024/01/30 10:36:00;;;;;;;10.48;8.25;;;;;;;;;;5051247;28;20057;-59
2024/01/30 10:38:28;;;;;;;12.77;11.43;;;;;;;;;;5050271;28;20523;-59
2024/01/30 10:40:55;;;;;;;14.83;10.40;;;;;;;;;;5051444;28;20530;-59
2024/01/30 10:43:21;;;;;;;13.95;8.88;;;;;;;;;;5049802;28;20535;-59
2024/01/30 10:45:49;;;;;;;14.18;9.93;;;;;;;;;;5051293;28;20388;-59
2024/01/30 10:48:16;;;;;;;15.73;10.35;;;;;;;;;;5050416;28;20017;-58
2024/01/30 10:50:41;;;;;;;14.20;11.18;;;;;;;;;;5051145;28;20017;-59
2024/01/30 10:53:08;;;;;;;13.52;10.45;;;;;;;;;;5051837;28;20376;-59
2024/01/30 10:55:33;;;;;;;14.35;9.77;;;;;;;;;;5050060;28;20033;-59
2024/01/30 10:57:59;;;;;;;12.35;9.40;;;;;;;;;;5050780;28;20029;-58
2024/01/30 11:00:26;;;;;;;17.75;11.10;;;;;;;;;;5049847;28;20029;-58
2024/01/30 11:02:51;;;;;;;13.15;9.13;;;;;;;;;;5051382;28;20037;-58
2024/01/30 11:05:23;;;;;;;17.60;8.38;;;;;;;;;;5049453;28;20238;-58
2024/01/30 11:07:48;;;;;;;19.50;10.35;;;;;;;;;;5051051;28;20043;-59
2024/01/30 11:10:15;;;;;;;12.70;10.88;;;;;;;;;;5049694;28;20399;-58
2024/01/30 11:12:46;;;;;;;13.65;8.73;;;;;;;;;;5050295;28;20049;-58
2024/01/30 11:15:18;;;;;;;11.57;9.77;;;;;;;;;;5049524;28;20032;-58
2024/01/30 11:17:49;;;;;;;11.07;8.52;;;;;;;;;;5051038;28;20017;-59
2024/01/30 11:20:15;;;;;;;11.85;9.68;;;;;;;;;;5046030;28;20667;-59
2024/01/30 11:22:41;;;;;;;14.07;11.88;;;;;;;;;;5050498;28;20108;-59
2024/01/30 11:25:10;;;;;;;13.00;9.85;;;;;;;;;;5048745;28;20091;-59
2024/01/30 11:27:35;;;;;;;12.50;8.98;;;;;;;;;;5049061;28;20035;-59
2024/01/30 11:30:02;;;;;;;10.75;8.32;;;;;;;;;;5048583;28;20036;-59
2024/01/30 11:32:27;;;;;;;14.73;9.75;;;;;;;;;;5050236;28;20032;-59
2024/01/30 11:34:53;;;;;;;10.25;8.18;;;;;;;;;;5047566;28;20467;-58
2024/01/30 11:37:19;;;;;;;14.57;10.10;;;;;;;;;;5050108;28;20044;-58
2024/01/30 11:39:45;;;;;;;13.13;9.52;;;;;;;;;;5048779;28;20037;-58
2024/01/30 11:42:11;;;;;;;19.20;10.50;;;;;;;;;;5050025;28;20472;-58
2024/01/30 11:44:36;;;;;;;12.10;10.73;;;;;;;;;;5049041;28;20039;-58
2024/01/30 11:47:03;;;;;;;15.13;10.70;;;;;;;;;;5050162;28;20432;-58
2024/01/30 11:49:28;;;;;;;14.63;9.75;;;;;;;;;;5048582;28;20490;-58
2024/01/30 11:51:54;;;;;;;11.63;10.10;;;;;;;;;;5050176;28;20048;-58
2024/01/30 11:54:19;;;;;;;18.20;9.40;;;;;;;;;;5049005;28;20124;-58
2024/01/30 11:56:44;;;;;;;16.57;10.37;;;;;;;;;;5049997;28;20471;-58
2024/01/30 11:59:09;;;;;;;15.07;9.75;;;;;;;;;;5048269;28;20455;-58
2024/01/30 12:01:35;;;;;;;14.10;9.00;;;;;;;;;;5050215;28;20020;-58
2024/01/30 12:04:00;;;;;;;13.27;10.35;;;;;;;;;;5048185;28;20488;-58
2024/01/30 12:06:25;;;;;;;16.27;9.32;;;;;;;;;;5050650;28;20135;-58
2024/01/30 12:09:00;;;;;;;15.40;10.50;;;;;;;;;;5048479;28;20040;-58
2024/01/30 12:11:26;;;;;;;18.48;10.00;;;;;;;;;;5050105;28;20029;-58
2024/01/30 12:13:52;;;;;;;11.30;9.32;;;;;;;;;;5048350;28;20037;-58
2024/01/30 12:16:17;;;;;;;12.35;9.15;;;;;;;;;;5050130;28;20028;-58
2024/01/30 12:18:43;;;;;;;10.60;9.50;;;;;;;;;;5048136;28;20171;-58
2024/01/30 12:21:08;;;;;;;13.87;8.27;;;;;;;;;;5050457;28;20032;-58
2024/01/30 12:23:34;;;;;;;15.77;7.93;;;;;;;;;;5049961;28;20467;-58
2024/01/30 12:26:01;;;;;;;10.57;9.55;;;;;;;;;;5053191;28;20021;-58
2024/01/30 12:28:26;;;;;;;10.10;8.05;;;;;;;;;;5052410;28;20543;-58
2024/01/30 12:30:55;;;;;;;15.02;10.13;;;;;;;;;;5053649;28;20013;-58
2024/01/30 12:33:20;;;;;;;14.70;9.30;;;;;;;;;;5051874;28;20500;-58
2024/01/30 12:35:46;;;;;;;13.55;9.13;;;;;;;;;;5053661;28;20016;-58
2024/01/30 12:38:11;;;;;;;13.30;9.73;;;;;;;;;;5053595;28;20033;-58
2024/01/30 12:40:37;;;;;;;14.07;8.73;;;;;;;;;;5051467;28;20058;-59
2024/01/30 12:43:02;;;;;;;11.13;8.87;;;;;;;;;;5053485;28;20013;-58
2024/01/30 12:45:28;;;;;;;11.85;9.93;;;;;;;;;;5052113;28;20815;-58
2024/01/30 12:47:53;;;;;;;15.20;10.17;;;;;;;;;;5052980;28;20021;-58
2024/01/30 12:50:19;;;;;;;16.58;9.23;;;;;;;;;;5052096;28;20136;-59
2024/01/30 12:52:44;;;;;;;10.82;8.85;;;;;;;;;;5053131;28;20021;-58
2024/01/30 12:55:09;;;;;;;10.13;9.10;;;;;;;;;;5051677;28;20048;-58
2024/01/30 12:57:34;;;;;;;21.47;9.70;;;;;;;;;;5053413;28;20024;-59
2024/01/30 13:00:00;;;;;;;18.40;9.95;;;;;;;;;;5051632;28;20116;-58
2024/01/30 13:02:26;;;;;;;17.03;10.30;;;;;;;;;;5052865;28;20029;-58
2024/01/30 13:04:51;;;;;;;11.98;8.90;;;;;;;;;;5051636;28;20459;-58
2024/01/30 13:07:17;;;;;;;15.20;7.63;;;;;;;;;;5053273;28;20353;-59
2024/01/30 13:09:42;;;;;;;15.43;8.80;;;;;;;;;;5051014;28;20037;-58
2024/01/30 13:12:07;;;;;;;10.53;8.90;;;;;;;;;;5053156;28;20017;-58
2024/01/30 13:14:32;;;;;;;14.60;9.30;;;;;;;;;;5051566;28;20447;-58
2024/01/30 13:16:58;;;;;;;10.00;7.57;;;;;;;;;;5052681;28;20427;-58
2024/01/30 13:19:23;;;;;;;12.63;7.38;;;;;;;;;;5051499;28;20447;-58
2024/01/30 13:21:48;;;;;;;15.37;8.67;;;;;;;;;;5052853;28;20109;-59
2024/01/30 13:24:13;;;;;;;10.63;7.83;;;;;;;;;;5051254;28;20452;-58
2024/01/30 13:26:39;;;;;;;10.77;8.05;;;;;;;;;;5052254;28;20028;-58
2024/01/30 13:29:04;;;;;;;10.30;8.23;;;;;;;;;;5051599;28;20067;-58
2024/01/30 13:31:29;;;;;;;8.10;5.93;;;;;;;;;;5053149;28;20016;-59
2024/01/30 13:33:55;;;;;;;13.13;6.93;;;;;;;;;;5050163;28;20448;-59
2024/01/30 13:36:20;;;;;;;10.48;6.72;;;;;;;;;;5052886;28;20040;-58
2024/01/30 13:38:46;;;;;;;11.05;6.75;;;;;;;;;;5050796;28;20407;-58
2024/01/30 13:41:11;;;;;;;8.10;6.28;;;;;;;;;;5052152;28;20063;-58
2024/01/30 13:43:37;;;;;;;9.73;6.72;;;;;;;;;;5051022;28;20029;-58
2024/01/30 13:46:03;;;;;;;9.93;6.50;;;;;;;;;;5052633;28;20105;-58
2024/01/30 13:48:28;;;;;;;8.98;5.47;;;;;;;;;;5050856;28;20108;-59
2024/01/30 13:50:54;;;;;;;7.90;5.47;;;;;;;;;;5052448;28;20092;-58
2024/01/30 13:53:19;;;;;;;7.40;5.80;;;;;;;;;;5051040;28;20028;-59
2024/01/30 13:55:44;;;;;;;6.82;5.10;;;;;;;;;;5051788;28;20025;-58
2024/01/30 13:58:09;;;;;;;8.57;4.70;;;;;;;;;;5052322;28;20051;-58
2024/01/30 14:00:34;;;;;;;11.20;6.30;;;;;;;;;;5050813;28;20448;-58
2024/01/30 14:03:00;;;;;;;13.67;6.27;;;;;;;;;;5051485;28;20017;-58
2024/01/30 14:05:25;;;;;;;6.35;5.28;;;;;;;;;;5050741;28;20112;-58
2024/01/30 14:07:51;;;;;;;10.85;7.68;;;;;;;;;;5051981;28;20051;-58
2024/01/30 14:10:17;;;;;;;20.33;7.20;;;;;;;;;;5050182;28;20037;-58